createdAt,value
2024-01-24T00:01:57.677Z,100587.31
2024-01-24T00:04:24.437Z,100591.06
2024-01-24T00:06:51.114Z,100592.78
2024-01-24T00:09:17.615Z,100596.41
2024-01-24T00:11:44.321Z,100584.94
2024-01-24T00:14:11.755Z,100592.19
2024-01-24T00:16:38.183Z,100599.31
2024-01-24T00:19:05.484Z,100589.59
2024-01-24T00:21:32.009Z,100590.53
2024-01-24T00:23:58.606Z,100587.09
2024-01-24T00:26:25.220Z,100573.13
2024-01-24T00:28:51.726Z,100577.63
2024-01-24T00:31:18.153Z,100588.75
2024-01-24T00:33:44.776Z,100584.88
2024-01-24T00:36:11.947Z,100579.47
2024-01-24T00:38:38.449Z,100575.06
2024-01-24T00:41:05.123Z,100571.56
2024-01-24T00:43:31.562Z,100562.50
2024-01-24T00:45:58.109Z,100566.91
2024-01-24T00:48:25.189Z,100569.13
2024-01-24T00:50:51.785Z,100578.97
2024-01-24T00:53:21.047Z,100576.72
2024-01-24T00:55:48.785Z,100578.13
2024-01-24T00:58:15.379Z,100577.06
2024-01-24T01:00:42.440Z,100555.53
2024-01-24T01:03:10.124Z,100538.53
2024-01-24T01:05:39.005Z,100530.06
2024-01-24T01:08:06.690Z,100531.94
2024-01-24T01:10:33.257Z,100542.88
2024-01-24T01:12:59.765Z,100522.13
2024-01-24T01:15:26.374Z,100511.53
2024-01-24T01:17:53.119Z,100507.94
2024-01-24T01:20:22.432Z,100495.25
2024-01-24T01:22:49.144Z,100482.63
2024-01-24T01:25:15.764Z,100473.50
2024-01-24T01:27:42.297Z,100456.81
2024-01-24T01:30:09.323Z,100436.72
2024-01-24T01:32:36.131Z,100433.56
2024-01-24T01:35:02.624Z,100418.69
2024-01-24T01:37:29.146Z,100405.72
2024-01-24T01:39:56.479Z,100412.78
2024-01-24T01:42:23.146Z,100416.28
2024-01-24T01:44:49.938Z,100400.44
2024-01-24T01:47:17.862Z,100399.75
2024-01-24T01:49:45.854Z,100397.09
2024-01-24T01:52:13.119Z,100400.75
2024-01-24T01:54:42.054Z,100409.03
2024-01-24T01:57:11.866Z,100400.72
2024-01-24T01:59:41.321Z,100379.22
2024-01-24T02:02:07.923Z,100375.13
2024-01-24T02:04:34.456Z,100369.59
2024-01-24T02:07:01.691Z,100366.63
2024-01-24T02:09:28.533Z,100377.50
2024-01-24T02:11:55.274Z,100369.13
2024-01-24T02:14:22.217Z,100360.81
2024-01-24T02:16:48.825Z,100371.22
2024-01-24T02:19:15.401Z,100358.50
2024-01-24T02:21:42.350Z,100356.97
2024-01-24T02:24:13.600Z,100347.00
2024-01-24T02:26:40.404Z,100347.22
2024-01-24T02:29:07.398Z,100345.31
2024-01-24T02:31:34.072Z,100324.59
2024-01-24T02:34:00.726Z,100315.97
2024-01-24T02:36:27.653Z,100301.41
2024-01-24T02:38:56.917Z,100297.56
2024-01-24T02:41:25.110Z,100297.38
2024-01-24T02:43:51.523Z,100292.31
2024-01-24T02:46:18.154Z,100289.88
2024-01-24T02:48:44.636Z,100294.69
2024-01-24T02:51:11.730Z,100290.75
2024-01-24T02:53:39.950Z,100282.09
2024-01-24T02:56:06.549Z,100274.69
2024-01-24T02:58:33.287Z,100260.69
2024-01-24T03:00:59.897Z,100275.75
2024-01-24T03:03:26.437Z,100260.66
2024-01-24T03:05:53.347Z,100245.28
2024-01-24T03:08:19.855Z,100251.09
2024-01-24T03:10:46.397Z,100235.19
2024-01-24T03:13:12.979Z,100220.22
2024-01-24T03:15:39.927Z,100197.75
2024-01-24T03:18:06.705Z,100195.19
2024-01-24T03:20:33.363Z,100178.16
2024-01-24T03:23:01.946Z,100180.59
2024-01-24T03:25:29.769Z,100187.56
2024-01-24T03:27:56.280Z,100182.50
2024-01-24T03:30:22.908Z,100166.03
2024-01-24T03:32:49.508Z,100155.63
2024-01-24T03:35:16.061Z,100166.53
2024-01-24T03:37:42.497Z,100162.41
2024-01-24T03:40:09.488Z,100173.19
2024-01-24T03:42:37.263Z,100167.97
2024-01-24T03:45:04.251Z,100166.66
2024-01-24T03:47:30.770Z,100155.38
2024-01-24T03:49:57.390Z,100143.50
2024-01-24T03:52:24.107Z,100142.97
2024-01-24T03:54:50.806Z,100132.50
2024-01-24T03:57:17.372Z,100120.09
2024-01-24T03:59:44.123Z,100113.81
2024-01-24T04:02:11.893Z,100118.63
2024-01-24T04:04:38.929Z,100118.31
2024-01-24T04:07:05.629Z,100104.19
2024-01-24T04:09:32.297Z,100082.41
2024-01-24T04:11:58.895Z,100090.94
2024-01-24T04:14:25.674Z,100076.41
2024-01-24T04:16:52.208Z,100060.47
2024-01-24T04:19:18.960Z,100055.34
2024-01-24T04:21:45.828Z,100049.59
2024-01-24T04:24:12.594Z,100037.31
2024-01-24T04:26:39.511Z,100025.75
2024-01-24T04:29:06.845Z,100013.56
2024-01-24T04:31:34.260Z,99999.03
2024-01-24T04:34:01.270Z,100001.69
2024-01-24T04:36:28.097Z,100009.06
2024-01-24T04:38:54.668Z,99998.69
2024-01-24T04:41:21.206Z,99988.84
2024-01-24T04:43:47.970Z,99992.91
2024-01-24T04:46:15.588Z,99996.13
2024-01-24T04:48:46.199Z,99982.47
2024-01-24T04:51:13.376Z,99969.41
2024-01-24T04:53:40.982Z,99957.00
2024-01-24T04:56:07.977Z,99948.25
2024-01-24T04:58:34.690Z,99947.16
2024-01-24T05:01:01.759Z,99938.00
2024-01-24T05:03:28.899Z,99922.81
2024-01-24T05:06:01.297Z,99921.19
2024-01-24T05:08:34.090Z,99923.34
2024-01-24T05:11:00.845Z,99919.09
2024-01-24T05:13:27.439Z,99898.44
2024-01-24T05:15:54.195Z,99905.81
2024-01-24T05:18:21.244Z,99907.13
2024-01-24T05:20:48.494Z,99891.72
2024-01-24T05:23:15.958Z,99897.72
2024-01-24T05:25:44.081Z,99885.75
2024-01-24T05:28:13.779Z,99884.25
2024-01-24T05:30:40.504Z,99865.97
2024-01-24T05:33:07.325Z,99854.75
2024-01-24T05:35:34.332Z,99853.78
2024-01-24T05:38:01.224Z,99838.28
2024-01-24T05:40:28.003Z,99820.31
2024-01-24T05:42:54.736Z,99820.13
2024-01-24T05:45:21.486Z,99817.97
2024-01-24T05:47:48.429Z,99789.91
2024-01-24T05:50:15.400Z,99790.19
2024-01-24T05:52:44.130Z,99782.56
2024-01-24T05:55:13.194Z,99763.47
2024-01-24T05:57:43.379Z,99771.38
2024-01-24T06:00:16.015Z,99780.56
2024-01-24T06:02:44.460Z,99791.47
2024-01-24T06:05:16.364Z,99781.59
2024-01-24T06:07:43.054Z,99781.41
2024-01-24T06:10:09.880Z,99787.47
2024-01-24T06:12:36.529Z,99768.31
2024-01-24T06:15:03.902Z,99761.91
2024-01-24T06:17:31.453Z,99758.59
2024-01-24T06:20:00.753Z,99738.03
2024-01-24T06:22:27.349Z,99734.31
2024-01-24T06:24:53.892Z,99749.84
2024-01-24T06:27:20.550Z,99723.91
2024-01-24T06:30:16.965Z,99698.94
2024-01-24T06:32:33.601Z,99709.03
2024-01-24T06:35:00.106Z,99718.22
2024-01-24T06:37:26.544Z,99715.97
2024-01-24T06:39:53.200Z,99695.50
2024-01-24T06:42:19.877Z,99695.19
2024-01-24T06:44:46.807Z,99683.47
2024-01-24T06:47:13.347Z,99672.16
2024-01-24T06:49:39.964Z,99661.19
2024-01-24T06:52:07.624Z,99670.69
2024-01-24T06:54:37.067Z,99658.88
2024-01-24T06:57:04.611Z,99625.78
2024-01-24T06:59:32.482Z,99610.75
2024-01-24T07:02:00.281Z,99594.75
2024-01-24T07:04:27.146Z,99556.88
2024-01-24T07:06:53.714Z,99541.31
2024-01-24T07:09:20.266Z,99523.38
2024-01-24T07:11:46.754Z,99520.84
2024-01-24T07:14:13.536Z,99501.84
2024-01-24T07:16:40.021Z,99499.06
2024-01-24T07:19:07.271Z,99478.81
2024-01-24T07:21:33.820Z,99468.97
2024-01-24T07:24:00.332Z,99473.63
2024-01-24T07:26:26.851Z,99459.81
2024-01-24T07:28:53.353Z,99444.19
2024-01-24T07:31:20.667Z,99455.81
2024-01-24T07:33:47.237Z,99459.84
2024-01-24T07:36:13.826Z,99465.19
2024-01-24T07:38:40.404Z,99442.75
2024-01-24T07:41:08.781Z,99449.06
2024-01-24T07:43:35.294Z,99427.28
2024-01-24T07:46:02.602Z,99434.66
2024-01-24T07:48:33.671Z,99414.28
2024-01-24T07:51:00.315Z,99412.38
2024-01-24T07:53:26.869Z,99396.88
2024-01-24T07:56:02.238Z,99387.53
2024-01-24T07:58:40.383Z,99369.47
2024-01-24T08:01:09.278Z,99365.97
2024-01-24T08:03:36.271Z,99369.00
2024-01-24T08:06:03.701Z,99330.66
2024-01-24T08:08:30.954Z,99336.63
2024-01-24T08:10:57.547Z,99314.06
2024-01-24T08:13:24.372Z,99319.16
2024-01-24T08:15:51.315Z,99330.78
2024-01-24T08:18:18.040Z,99319.28
2024-01-24T08:20:44.829Z,99326.56
2024-01-24T08:23:12.972Z,99310.78
2024-01-24T08:25:39.425Z,99289.44
2024-01-24T08:28:06.185Z,99299.13
2024-01-24T08:30:33.077Z,99280.91
2024-01-24T08:32:59.640Z,99283.59
2024-01-24T08:35:26.374Z,99270.25
2024-01-24T08:37:52.911Z,99271.44
2024-01-24T08:40:20.319Z,99267.56
2024-01-24T08:42:47.382Z,99248.50
2024-01-24T08:45:14.259Z,99262.69
2024-01-24T08:47:40.818Z,99243.53
2024-01-24T08:50:08.440Z,99248.25
2024-01-24T08:52:35.041Z,99245.56
2024-01-24T08:55:02.202Z,99239.13
2024-01-24T08:57:29.640Z,99230.16
2024-01-24T08:59:56.515Z,99224.78
2024-01-24T09:02:23.892Z,99231.94
2024-01-24T09:04:53.103Z,99221.34
2024-01-24T09:07:24.301Z,99227.03
2024-01-24T09:09:52.388Z,99211.28
2024-01-24T09:12:19.437Z,99211.97
2024-01-24T09:14:46.258Z,99215.72
2024-01-24T09:17:13.636Z,99204.63
2024-01-24T09:19:43.502Z,99195.41
2024-01-24T09:22:13.371Z,99197.41
2024-01-24T09:24:40.060Z,99183.06
2024-01-24T09:27:07.163Z,99188.19
2024-01-24T09:29:33.975Z,99177.34
2024-01-24T09:32:00.592Z,99184.00
2024-01-24T09:34:28.469Z,99166.00
2024-01-24T09:36:56.165Z,99144.94
2024-01-24T09:39:24.202Z,99144.41
2024-01-24T09:41:52.802Z,99130.78
2024-01-24T09:44:23.969Z,99133.44
2024-01-24T09:46:53.377Z,99124.63
2024-01-24T09:49:20.958Z,99133.25
2024-01-24T09:51:50.840Z,99118.50
2024-01-24T09:54:21.586Z,99088.06
2024-01-24T09:56:50.222Z,99095.56
2024-01-24T09:59:17.388Z,99127.97
2024-01-24T10:01:47.502Z,99118.53
2024-01-24T10:04:16.350Z,99113.44
2024-01-24T10:06:43.964Z,99096.47
2024-01-24T10:09:11.008Z,99102.81
2024-01-24T10:11:37.759Z,99089.44
2024-01-24T10:14:04.280Z,99099.00
2024-01-24T10:16:30.910Z,99095.78
2024-01-24T10:18:58.294Z,99088.31
2024-01-24T10:21:27.030Z,99087.56
2024-01-24T10:23:59.097Z,99077.44
2024-01-24T10:26:31.155Z,99072.19
2024-01-24T10:28:57.997Z,99073.25
2024-01-24T10:31:25.648Z,99072.56
2024-01-24T10:33:59.116Z,99053.53
2024-01-24T10:36:32.386Z,99057.03
2024-01-24T10:39:05.216Z,99046.88
2024-01-24T10:41:33.514Z,99048.56
2024-01-24T10:44:07.662Z,99040.81
2024-01-24T10:46:34.650Z,99023.66
2024-01-24T10:49:02.820Z,99021.69
2024-01-24T10:51:30.824Z,99020.13
2024-01-24T10:53:58.364Z,99013.94
2024-01-24T10:56:26.114Z,99005.91
2024-01-24T10:58:52.966Z,99001.28
2024-01-24T11:01:20.070Z,99002.53
2024-01-24T11:03:51.028Z,98999.59
2024-01-24T11:06:19.452Z,98993.25
2024-01-24T11:09:03.895Z,98981.41
2024-01-24T11:11:33.068Z,99000.00
2024-01-24T11:14:00.365Z,98993.25
2024-01-24T11:16:26.904Z,98985.06
2024-01-24T11:18:58.173Z,98993.25
2024-01-24T11:21:24.865Z,98995.09
2024-01-24T11:23:51.617Z,99001.44
2024-01-24T11:26:18.011Z,98985.91
2024-01-24T11:28:48.187Z,98993.13
2024-01-24T11:31:15.371Z,98983.53
2024-01-24T11:34:11.310Z,98982.91
2024-01-24T11:36:43.006Z,98974.59
2024-01-24T11:39:39.060Z,98972.75
2024-01-24T11:42:25.057Z,98978.41
2024-01-24T11:44:55.030Z,98975.13
2024-01-24T11:47:23.872Z,98972.03
2024-01-24T11:49:52.212Z,98976.81
2024-01-24T11:52:22.270Z,98966.03
2024-01-24T11:54:55.454Z,98973.06
2024-01-24T11:57:22.168Z,98968.94
2024-01-24T11:59:49.261Z,98962.06
2024-01-24T12:02:17.317Z,98973.31
2024-01-24T12:04:44.041Z,98950.56
2024-01-24T12:07:10.989Z,98955.19
2024-01-24T12:09:37.583Z,98957.97
2024-01-24T12:12:04.526Z,98950.38
2024-01-24T12:14:31.184Z,98945.72
2024-01-24T12:16:58.760Z,98954.16
2024-01-24T12:19:26.928Z,98953.69
2024-01-24T12:21:56.115Z,98950.31
2024-01-24T12:24:23.515Z,98963.69
2024-01-24T12:26:52.227Z,98944.91
2024-01-24T12:29:22.217Z,98936.56
2024-01-24T12:31:49.494Z,98940.25
2024-01-24T12:34:16.391Z,98934.88
2024-01-24T12:36:45.933Z,98946.31
2024-01-24T12:39:12.677Z,98939.16
2024-01-24T12:41:40.427Z,98943.53
2024-01-24T12:44:09.923Z,98943.78
2024-01-24T12:46:39.348Z,98958.59
2024-01-24T12:49:06.121Z,98946.03
2024-01-24T12:51:33.394Z,98950.84
2024-01-24T12:54:00.052Z,98953.13
2024-01-24T12:56:26.974Z,98950.78
2024-01-24T12:58:53.746Z,98940.03
2024-01-24T13:01:20.608Z,98942.25
2024-01-24T13:03:47.287Z,98935.47
2024-01-24T13:06:14.036Z,98917.63
2024-01-24T13:08:40.688Z,98926.53
2024-01-24T13:11:07.458Z,98922.16
2024-01-24T13:13:34.214Z,98924.91
2024-01-24T13:16:01.009Z,98936.13
2024-01-24T13:18:27.746Z,98934.59
2024-01-24T13:20:54.520Z,98937.69
2024-01-24T13:23:21.890Z,98939.50
2024-01-24T13:25:48.612Z,98945.22
2024-01-24T13:28:15.468Z,98957.84
2024-01-24T13:30:42.192Z,98958.84
2024-01-24T13:33:11.264Z,98956.63
2024-01-24T13:35:38.038Z,98965.97
2024-01-24T13:38:05.386Z,98935.28
2024-01-24T13:40:32.269Z,98958.59
2024-01-24T13:42:58.834Z,98959.59
2024-01-24T13:45:25.510Z,98961.91
2024-01-24T13:47:52.164Z,98944.09
2024-01-24T13:50:18.778Z,98958.94
2024-01-24T13:52:45.480Z,98964.59
2024-01-24T13:55:15.134Z,98966.47
2024-01-24T13:57:43.937Z,98971.16
2024-01-24T14:00:14.797Z,98966.59
2024-01-24T14:02:42.566Z,98967.75
2024-01-24T14:05:11.152Z,98956.47
2024-01-24T14:07:40.041Z,98957.47
2024-01-24T14:10:07.569Z,98966.75
2024-01-24T14:12:34.332Z,98959.97
2024-01-24T14:15:05.418Z,98943.88
2024-01-24T14:17:34.709Z,98946.34
2024-01-24T14:20:02.404Z,98933.53
2024-01-24T14:22:29.151Z,98944.94
2024-01-24T14:24:55.857Z,98957.53
2024-01-24T14:27:25.945Z,98947.72
2024-01-24T14:29:52.474Z,98957.47
2024-01-24T14:32:20.557Z,98956.66
2024-01-24T14:34:47.521Z,98955.31
2024-01-24T14:37:14.253Z,98952.47
2024-01-24T14:39:41.041Z,98959.44
2024-01-24T14:42:09.324Z,98958.19
2024-01-24T14:44:36.456Z,98955.13
2024-01-24T14:47:02.996Z,98952.97
2024-01-24T14:49:29.678Z,98960.06
2024-01-24T14:51:56.704Z,98969.81
2024-01-24T14:54:23.282Z,98958.28
2024-01-24T14:56:49.903Z,98952.81
2024-01-24T14:59:16.521Z,98974.31
2024-01-24T15:04:55.432Z,98971.22
2024-01-24T15:07:22.589Z,98987.69
2024-01-24T15:09:49.181Z,98986.63
2024-01-24T15:12:15.736Z,98984.06
2024-01-24T15:14:42.526Z,98988.28
2024-01-24T15:17:09.119Z,98993.19
2024-01-24T15:19:35.911Z,98994.06
2024-01-24T15:22:02.814Z,98996.81
2024-01-24T15:24:29.369Z,98988.03
2024-01-24T15:26:56.187Z,98992.94
2024-01-24T15:29:22.942Z,98995.03
2024-01-24T15:31:49.513Z,98983.47
2024-01-24T15:34:17.801Z,98996.81
2024-01-24T15:36:44.935Z,98987.78
2024-01-24T15:39:14.644Z,99011.44
2024-01-24T15:41:42.577Z,99008.47
2024-01-24T15:44:09.364Z,98998.53
2024-01-24T15:46:36.249Z,98995.59
2024-01-24T15:49:04.138Z,98998.69
2024-01-24T15:51:31.260Z,99007.59
2024-01-24T15:53:57.818Z,99013.81
2024-01-24T15:56:24.378Z,99016.19
2024-01-24T15:58:50.964Z,99014.25
2024-01-24T16:01:17.964Z,99018.94
2024-01-24T16:03:44.732Z,99024.22
2024-01-24T16:06:12.107Z,99014.19
2024-01-24T16:08:38.751Z,99023.69
2024-01-24T16:11:05.402Z,99028.91
2024-01-24T16:13:32.018Z,99019.47
2024-01-24T16:16:01.566Z,99019.16
2024-01-24T16:18:29.965Z,99022.91
2024-01-24T16:20:57.091Z,99022.81
2024-01-24T16:23:23.656Z,99016.00
2024-01-24T16:25:50.256Z,99022.91
2024-01-24T16:28:17.515Z,99015.84
2024-01-24T16:30:44.588Z,99014.19
2024-01-24T16:33:12.053Z,99023.53
2024-01-24T16:35:38.902Z,99017.59
2024-01-24T16:38:05.984Z,99026.91
2024-01-24T16:40:33.134Z,99006.97
2024-01-24T16:42:59.775Z,99012.16
2024-01-24T16:45:26.433Z,99012.28
2024-01-24T16:47:53.173Z,99014.09
2024-01-24T16:50:19.885Z,99016.78
2024-01-24T16:52:46.582Z,99019.06
2024-01-24T16:55:13.388Z,99010.56
2024-01-24T16:57:40.150Z,99015.84
2024-01-24T17:00:07.298Z,99011.28
2024-01-24T17:02:42.547Z,99008.03
2024-01-24T17:05:13.697Z,99003.22
2024-01-24T17:07:40.359Z,99007.59
2024-01-24T17:10:07.383Z,99022.16
2024-01-24T17:12:34.151Z,98998.84
2024-01-24T17:15:00.868Z,98999.09
2024-01-24T17:17:27.619Z,99002.78
2024-01-24T17:19:54.952Z,98992.22
2024-01-24T17:22:21.725Z,98989.59
2024-01-24T17:24:48.488Z,98998.75
2024-01-24T17:27:15.162Z,98988.00
2024-01-24T17:29:41.920Z,98992.91
2024-01-24T17:32:08.559Z,98990.50
2024-01-24T17:34:35.270Z,98991.19
2024-01-24T17:37:02.106Z,98990.03
2024-01-24T17:39:28.767Z,98986.19
2024-01-24T17:41:55.464Z,98984.22
2024-01-24T17:44:22.145Z,98978.44
2024-01-24T17:46:49.065Z,98982.13
2024-01-24T17:49:16.746Z,98977.97
2024-01-24T17:51:44.319Z,98987.63
2024-01-24T17:54:11.922Z,98989.50
2024-01-24T17:56:38.603Z,98981.78
2024-01-24T17:59:05.350Z,99001.94
2024-01-24T18:01:32.577Z,98999.59
2024-01-24T18:03:59.641Z,99002.13
2024-01-24T18:06:26.788Z,98992.78
2024-01-24T18:08:53.329Z,99000.31
2024-01-24T18:11:19.914Z,99000.50
2024-01-24T18:13:46.513Z,98984.72
2024-01-24T18:16:13.125Z,98999.22
2024-01-24T18:18:40.012Z,98991.78
2024-01-24T18:21:08.538Z,98994.31
2024-01-24T18:23:35.998Z,98998.63
2024-01-24T18:26:02.935Z,99000.97
2024-01-24T18:28:29.426Z,98996.00
2024-01-24T18:30:56.179Z,98992.84
2024-01-24T18:33:23.472Z,98983.50
2024-01-24T18:35:50.003Z,98989.16
2024-01-24T18:38:18.063Z,98987.97
2024-01-24T18:40:44.928Z,98997.16
2024-01-24T18:43:12.316Z,99003.84
2024-01-24T18:45:38.949Z,98995.41
2024-01-24T18:48:06.620Z,98994.19
2024-01-24T18:50:33.226Z,98987.69
2024-01-24T18:52:59.968Z,98992.44
2024-01-24T18:55:27.019Z,98986.00
2024-01-24T18:57:53.986Z,98982.31
2024-01-24T19:00:22.181Z,98993.06
2024-01-24T19:02:49.099Z,98990.22
2024-01-24T19:05:19.740Z,98978.88
2024-01-24T19:07:50.964Z,98981.09
2024-01-24T19:10:18.604Z,98972.03
2024-01-24T19:12:45.394Z,98978.41
2024-01-24T19:15:12.136Z,98977.72
2024-01-24T19:17:39.731Z,98986.09
2024-01-24T19:20:07.111Z,98982.31
2024-01-24T19:22:33.956Z,98981.47
2024-01-24T19:25:00.596Z,98981.34
2024-01-24T19:27:27.414Z,98981.53
2024-01-24T19:29:54.298Z,98989.59
2024-01-24T19:32:20.955Z,98979.81
2024-01-24T19:34:56.039Z,98981.97
2024-01-24T19:37:23.741Z,98979.94
2024-01-24T19:39:50.418Z,98983.94
2024-01-24T19:42:17.761Z,98980.09
2024-01-24T19:44:44.531Z,98985.19
2024-01-24T19:47:12.027Z,98982.09
2024-01-24T19:49:38.688Z,98982.09
2024-01-24T19:52:05.766Z,98975.72
2024-01-24T19:54:32.391Z,98980.78
2024-01-24T19:56:59.100Z,98979.09
2024-01-24T19:59:25.900Z,98983.06
2024-01-24T20:01:53.202Z,98990.75
2024-01-24T20:04:20.316Z,98989.16
2024-01-24T20:06:46.873Z,98993.59
2024-01-24T20:09:16.615Z,98993.06
2024-01-24T20:11:43.160Z,98997.72
2024-01-24T20:14:09.873Z,98992.59
2024-01-24T20:16:36.326Z,98992.59
2024-01-24T20:19:03.067Z,98982.84
2024-01-24T20:21:30.166Z,98994.13
2024-01-24T20:23:58.093Z,98983.69
2024-01-24T20:26:25.119Z,98975.19
2024-01-24T20:28:51.965Z,98992.81
2024-01-24T20:31:18.427Z,98985.09
2024-01-24T20:33:44.982Z,98985.13
2024-01-24T20:36:12.954Z,98989.38
2024-01-24T20:38:42.646Z,98987.91
2024-01-24T20:41:10.741Z,98981.47
2024-01-24T20:43:38.989Z,99000.66
2024-01-24T20:46:07.956Z,98988.31
2024-01-24T20:48:34.890Z,98984.91
2024-01-24T20:51:02.250Z,98994.81
2024-01-24T20:53:29.532Z,98991.03
2024-01-24T20:55:57.367Z,98989.81
2024-01-24T20:58:24.259Z,98996.63
2024-01-24T21:00:50.975Z,98977.09
2024-01-24T21:03:21.102Z,98989.97
2024-01-24T21:05:50.859Z,98980.84
2024-01-24T21:08:17.659Z,98999.06
2024-01-24T21:10:49.325Z,98994.84
2024-01-24T21:13:22.367Z,98990.75
2024-01-24T21:15:49.343Z,98990.34
2024-01-24T21:18:17.403Z,99001.63
2024-01-24T21:20:44.102Z,98989.47
2024-01-24T21:23:11.860Z,98988.63
2024-01-24T21:25:38.501Z,99003.16
2024-01-24T21:28:05.745Z,99002.63
2024-01-24T21:30:32.408Z,98992.22
2024-01-24T21:32:59.266Z,98995.56
2024-01-24T21:35:26.032Z,98991.91
2024-01-24T21:37:52.633Z,98992.34
2024-01-24T21:40:19.280Z,98994.41
2024-01-24T21:42:46.135Z,98992.88
2024-01-24T21:45:12.955Z,98990.72
2024-01-24T21:47:41.366Z,98984.75
2024-01-24T21:50:09.037Z,98986.47
2024-01-24T21:52:36.981Z,98979.63
2024-01-24T21:55:04.990Z,98986.63
2024-01-24T21:57:31.672Z,98980.28
2024-01-24T21:59:58.856Z,98987.03
2024-01-24T22:02:25.643Z,98986.78
2024-01-24T22:04:52.436Z,98995.69
2024-01-24T22:07:19.170Z,98980.81
2024-01-24T22:09:49.600Z,98987.88
2024-01-24T22:12:17.324Z,98974.28
2024-01-24T22:14:43.989Z,98974.44
2024-01-24T22:17:11.702Z,98976.00
2024-01-24T22:19:38.421Z,98979.66
2024-01-24T22:22:05.021Z,98978.13
2024-01-24T22:24:31.679Z,98976.84
2024-01-24T22:26:58.295Z,98992.94
2024-01-24T22:29:24.829Z,98986.34
2024-01-24T22:31:51.268Z,98989.13
2024-01-24T22:34:17.830Z,99000.31
2024-01-24T22:36:44.480Z,98999.16
2024-01-24T22:39:11.957Z,98991.72
2024-01-24T22:41:42.612Z,98988.31
2024-01-24T22:44:11.013Z,99012.78
2024-01-24T22:46:40.999Z,98998.28
2024-01-24T22:49:08.445Z,98997.19
2024-01-24T22:51:36.567Z,99003.66
2024-01-24T22:54:03.855Z,98998.91
2024-01-24T22:56:31.162Z,99000.38
2024-01-24T22:58:57.903Z,99003.16
2024-01-24T23:01:24.618Z,99007.72
2024-01-24T23:03:51.565Z,99001.91
2024-01-24T23:06:18.705Z,99005.31
2024-01-24T23:08:45.278Z,98997.69
2024-01-24T23:11:12.991Z,99004.59
2024-01-24T23:13:41.700Z,98988.66
2024-01-24T23:16:08.842Z,99002.94
2024-01-24T23:18:35.434Z,98994.88
2024-01-24T23:21:01.904Z,98995.31
2024-01-24T23:23:28.427Z,99009.00
2024-01-24T23:25:55.057Z,98991.78
2024-01-24T23:28:21.710Z,98994.03
2024-01-24T23:30:48.317Z,99008.00
2024-01-24T23:33:15.054Z,98995.56
2024-01-24T23:35:41.743Z,98997.97
2024-01-24T23:38:08.212Z,98986.25
2024-01-24T23:40:34.944Z,98990.75
2024-01-24T23:43:01.677Z,98993.16
2024-01-24T23:45:28.710Z,98997.53
2024-01-24T23:47:55.547Z,99006.28
2024-01-24T23:50:22.819Z,99004.72
2024-01-24T23:52:49.837Z,99004.88
2024-01-24T23:55:16.835Z,99007.25
2024-01-24T23:57:43.481Z,99014.06
